createdAt,value
2017-08-27T00:02:16.457Z,8.20
2017-08-27T00:04:43.898Z,7.80
2017-08-27T00:07:11.332Z,7.93
2017-08-27T00:09:38.779Z,8.80
2017-08-27T00:12:06.220Z,8.67
2017-08-27T00:14:33.676Z,8.30
2017-08-27T00:17:01.120Z,7.60
2017-08-27T00:19:28.563Z,7.50
2017-08-27T00:21:56.017Z,8.03
2017-08-27T00:24:23.483Z,7.33
2017-08-27T00:26:50.929Z,7.83
2017-08-27T00:29:18.362Z,8.27
2017-08-27T00:31:45.817Z,8.00
2017-08-27T00:34:13.246Z,7.27
2017-08-27T00:36:40.718Z,7.53
2017-08-27T00:39:08.147Z,8.10
2017-08-27T00:41:35.595Z,7.30
2017-08-27T00:44:03.047Z,7.50
2017-08-27T00:46:30.503Z,7.23
2017-08-27T00:48:57.948Z,7.60
2017-08-27T00:51:25.396Z,7.47
2017-08-27T00:53:52.831Z,7.03
2017-08-27T00:56:20.283Z,7.60
2017-08-27T00:58:47.714Z,7.30
2017-08-27T01:01:15.161Z,7.50
2017-08-27T01:03:42.620Z,7.70
2017-08-27T01:06:10.063Z,7.10
2017-08-27T01:08:37.506Z,7.37
2017-08-27T01:11:04.965Z,6.67
2017-08-27T01:13:32.399Z,7.70
2017-08-27T01:15:59.836Z,7.20
2017-08-27T01:18:27.283Z,6.13
2017-08-27T01:20:54.714Z,6.70
2017-08-27T01:23:22.154Z,6.67
2017-08-27T01:25:49.603Z,6.93
2017-08-27T01:28:17.055Z,6.67
2017-08-27T01:30:44.499Z,6.30
2017-08-27T01:33:11.946Z,5.43
2017-08-27T01:35:39.384Z,6.13
2017-08-27T01:38:06.831Z,6.40
2017-08-27T01:40:34.271Z,7.30
2017-08-27T01:43:01.707Z,8.37
2017-08-27T01:45:29.159Z,7.03
2017-08-27T01:47:56.603Z,7.73
2017-08-27T01:50:24.055Z,7.57
2017-08-27T01:52:51.486Z,7.83
2017-08-27T01:55:18.936Z,8.30
2017-08-27T01:57:47.146Z,8.73
2017-08-27T02:00:14.602Z,9.73
2017-08-27T02:02:42.045Z,9.00
2017-08-27T02:05:09.497Z,8.33
2017-08-27T02:07:36.934Z,7.63
2017-08-27T02:10:04.384Z,8.43
2017-08-27T02:12:31.833Z,7.90
2017-08-27T02:14:59.296Z,8.37
2017-08-27T02:17:26.735Z,14.33
2017-08-27T02:19:54.178Z,8.33
2017-08-27T02:22:21.623Z,8.83
2017-08-27T02:24:49.062Z,8.97
2017-08-27T02:27:16.521Z,9.23
2017-08-27T02:29:43.950Z,8.27
2017-08-27T02:32:11.398Z,7.30
2017-08-27T02:34:38.843Z,7.43
2017-08-27T02:37:06.295Z,8.10
2017-08-27T02:39:33.733Z,8.03
2017-08-27T02:42:01.178Z,7.33
2017-08-27T02:44:28.632Z,8.13
2017-08-27T02:46:56.084Z,8.33
2017-08-27T02:49:23.523Z,8.00
2017-08-27T02:51:50.980Z,8.90
2017-08-27T02:54:18.432Z,9.30
2017-08-27T02:56:45.877Z,7.27
2017-08-27T02:59:13.311Z,7.40
2017-08-27T03:01:40.756Z,7.73
2017-08-27T03:04:08.195Z,8.53
2017-08-27T03:06:35.634Z,8.03
2017-08-27T03:09:03.083Z,8.13
2017-08-27T03:11:30.527Z,8.87
2017-08-27T03:13:57.971Z,7.93
2017-08-27T03:16:25.414Z,8.97
2017-08-27T03:18:52.852Z,9.20
2017-08-27T03:21:20.318Z,8.00
2017-08-27T03:23:48.528Z,8.83
2017-08-27T03:26:15.973Z,8.30
2017-08-27T03:28:43.415Z,8.90
2017-08-27T03:31:10.871Z,8.73
2017-08-27T03:33:38.309Z,9.17
2017-08-27T03:36:05.753Z,9.17
2017-08-27T03:38:33.209Z,8.60
2017-08-27T03:41:00.659Z,9.63
2017-08-27T03:43:28.106Z,8.60
2017-08-27T03:45:55.551Z,8.83
2017-08-27T03:48:22.998Z,8.97
2017-08-27T03:50:50.442Z,9.87
2017-08-27T03:53:17.898Z,8.90
2017-08-27T03:55:45.364Z,8.77
2017-08-27T03:58:12.812Z,8.50
2017-08-27T04:00:40.271Z,9.00
2017-08-27T04:03:07.707Z,8.80
2017-08-27T04:05:35.159Z,9.27
2017-08-27T04:08:02.599Z,9.17
2017-08-27T04:10:30.043Z,8.70
2017-08-27T04:12:57.487Z,8.40
2017-08-27T04:15:24.943Z,8.30
2017-08-27T04:17:52.387Z,8.80
2017-08-27T04:20:19.856Z,8.80
2017-08-27T04:22:47.312Z,9.13
2017-08-27T04:25:14.762Z,9.50
2017-08-27T04:27:42.227Z,8.60
2017-08-27T04:30:09.672Z,8.80
2017-08-27T04:32:37.137Z,8.97
2017-08-27T04:35:04.593Z,9.37
2017-08-27T04:37:32.050Z,8.77
2017-08-27T04:39:59.490Z,9.00
2017-08-27T04:42:26.947Z,9.17
2017-08-27T04:44:54.396Z,9.33
2017-08-27T04:47:21.847Z,9.53
2017-08-27T04:49:49.294Z,9.83
2017-08-27T04:52:16.755Z,8.87
2017-08-27T04:54:44.189Z,8.77
2017-08-27T04:57:11.631Z,9.13
2017-08-27T04:59:39.839Z,8.43
2017-08-27T05:02:07.311Z,9.73
2017-08-27T05:04:34.762Z,8.93
2017-08-27T05:07:02.216Z,8.87
2017-08-27T05:09:29.676Z,10.03
2017-08-27T05:11:57.121Z,9.43
2017-08-27T05:14:24.578Z,9.33
2017-08-27T05:16:52.036Z,9.93
2017-08-27T05:19:19.498Z,10.83
2017-08-27T05:21:46.941Z,9.70
2017-08-27T05:24:14.400Z,11.17
2017-08-27T05:26:41.860Z,10.30
2017-08-27T05:29:09.316Z,10.70
2017-08-27T05:31:36.751Z,10.37
2017-08-27T05:34:04.199Z,10.60
2017-08-27T05:36:31.646Z,10.67
2017-08-27T05:38:59.083Z,9.77
2017-08-27T05:41:26.547Z,8.50
2017-08-27T05:43:53.985Z,9.80
2017-08-27T05:46:21.429Z,9.40
2017-08-27T05:48:48.883Z,9.00
2017-08-27T05:51:16.322Z,10.23
2017-08-27T05:53:43.793Z,8.57
2017-08-27T05:56:11.235Z,8.37
2017-08-27T05:58:38.680Z,8.43
2017-08-27T06:01:06.143Z,10.53
2017-08-27T06:03:33.575Z,10.70
2017-08-27T06:06:01.027Z,12.40
2017-08-27T06:08:28.465Z,14.37
2017-08-27T06:10:55.916Z,11.30
2017-08-27T06:13:23.359Z,11.27
2017-08-27T06:15:50.815Z,10.70
2017-08-27T06:18:18.262Z,11.07
2017-08-27T06:20:45.709Z,11.63
2017-08-27T06:23:13.147Z,10.50
2017-08-27T06:25:40.597Z,9.80
2017-08-27T06:28:08.031Z,10.33
2017-08-27T06:30:35.470Z,9.07
2017-08-27T06:33:03.683Z,8.47
2017-08-27T06:35:31.127Z,9.57
2017-08-27T06:37:58.559Z,9.27
2017-08-27T06:40:26.020Z,11.47
2017-08-27T06:42:53.459Z,11.47
2017-08-27T06:45:20.925Z,11.87
2017-08-27T06:47:48.373Z,11.77
2017-08-27T06:50:15.815Z,15.50
2017-08-27T06:52:43.334Z,13.20
2017-08-27T06:55:10.766Z,13.20
2017-08-27T06:57:38.212Z,13.10
2017-08-27T07:00:05.665Z,14.70
2017-08-27T07:02:33.120Z,13.00
2017-08-27T07:05:00.554Z,13.93
2017-08-27T07:07:28.015Z,15.23
2017-08-27T07:09:55.466Z,14.00
2017-08-27T07:12:22.919Z,14.87
2017-08-27T07:14:50.441Z,14.40
2017-08-27T07:17:17.882Z,13.43
2017-08-27T07:19:45.339Z,12.77
2017-08-27T07:22:13.527Z,13.87
2017-08-27T07:24:40.970Z,13.20
2017-08-27T07:27:08.432Z,12.17
2017-08-27T07:29:35.875Z,11.13
2017-08-27T07:32:03.331Z,12.70
2017-08-27T07:34:30.770Z,12.43
2017-08-27T07:36:58.222Z,14.30
2017-08-27T07:39:25.668Z,16.73
2017-08-27T07:41:53.115Z,15.40
2017-08-27T07:44:20.554Z,14.80
2017-08-27T07:46:48.012Z,14.30
2017-08-27T07:49:15.475Z,15.00
2017-08-27T07:51:42.952Z,13.97
2017-08-27T07:54:10.406Z,14.10
2017-08-27T07:56:37.867Z,16.83
2017-08-27T07:59:05.314Z,15.87
2017-08-27T08:01:32.763Z,18.17
2017-08-27T08:04:00.218Z,17.07
2017-08-27T08:06:27.671Z,18.37
2017-08-27T08:08:55.147Z,18.33
2017-08-27T08:11:22.600Z,19.10
2017-08-27T08:13:50.042Z,18.30
2017-08-27T08:16:17.490Z,17.33
2017-08-27T08:18:44.946Z,18.97
2017-08-27T08:21:12.403Z,18.17
2017-08-27T08:23:39.895Z,18.20
2017-08-27T08:26:07.329Z,18.10
2017-08-27T08:28:34.786Z,19.10
2017-08-27T08:31:02.234Z,19.90
2017-08-27T08:33:29.692Z,19.57
2017-08-27T08:35:57.140Z,19.10
2017-08-27T08:38:24.603Z,18.33
2017-08-27T08:40:52.059Z,19.40
2017-08-27T08:43:19.518Z,19.27
2017-08-27T08:45:46.969Z,17.80
2017-08-27T08:48:14.446Z,19.70
2017-08-27T08:50:41.897Z,19.47
2017-08-27T08:53:09.341Z,19.90
2017-08-27T08:55:36.799Z,20.87
2017-08-27T08:58:04.251Z,19.67
2017-08-27T09:00:31.698Z,20.47
2017-08-27T09:02:59.143Z,19.70
2017-08-27T09:05:26.596Z,17.83
2017-08-27T09:07:54.055Z,18.70
2017-08-27T09:10:21.507Z,18.70
2017-08-27T09:12:48.958Z,18.50
2017-08-27T09:15:16.415Z,18.93
2017-08-27T09:17:43.879Z,18.40
2017-08-27T09:20:11.331Z,17.30
2017-08-27T09:22:38.788Z,17.97
2017-08-27T09:25:06.240Z,17.33
2017-08-27T09:27:33.704Z,18.67
2017-08-27T09:30:01.155Z,14.60
2017-08-27T09:32:28.613Z,15.03
2017-08-27T09:34:56.067Z,14.93
2017-08-27T09:37:23.523Z,15.30
2017-08-27T09:39:50.978Z,15.00
2017-08-27T09:42:18.438Z,13.17
2017-08-27T09:44:45.902Z,13.30
2017-08-27T09:47:13.347Z,15.33
2017-08-27T09:49:40.799Z,16.20
2017-08-27T09:52:08.258Z,13.13
2017-08-27T09:54:35.712Z,13.77
2017-08-27T09:57:03.164Z,15.07
2017-08-27T09:59:30.606Z,14.03
2017-08-27T10:01:58.055Z,12.80
2017-08-27T10:04:25.792Z,13.97
2017-08-27T10:06:53.239Z,12.33
2017-08-27T10:09:20.695Z,12.50
2017-08-27T10:11:48.151Z,13.37
2017-08-27T10:14:15.606Z,10.43
2017-08-27T10:16:43.067Z,14.57
2017-08-27T10:19:10.502Z,11.70
2017-08-27T10:21:37.963Z,13.23
2017-08-27T10:24:05.410Z,14.00
2017-08-27T10:26:32.863Z,12.77
2017-08-27T10:29:00.306Z,12.50
2017-08-27T10:31:27.771Z,11.20
2017-08-27T10:33:55.213Z,12.30
2017-08-27T10:36:22.678Z,13.47
2017-08-27T10:38:50.126Z,14.80
2017-08-27T10:41:17.567Z,12.43
2017-08-27T10:43:45.849Z,16.23
2017-08-27T10:46:13.282Z,13.83
2017-08-27T10:48:40.731Z,11.20
2017-08-27T10:51:08.173Z,10.73
2017-08-27T10:53:35.636Z,12.50
2017-08-27T10:56:03.082Z,12.07
2017-08-27T10:58:30.542Z,13.80
2017-08-27T11:00:57.999Z,13.10
2017-08-27T11:03:25.453Z,12.77
2017-08-27T11:05:52.892Z,13.57
2017-08-27T11:08:20.347Z,12.70
2017-08-27T11:10:47.799Z,12.60
2017-08-27T11:13:15.246Z,12.90
2017-08-27T11:15:42.694Z,12.47
2017-08-27T11:18:10.150Z,11.47
2017-08-27T11:20:37.590Z,12.60
2017-08-27T11:23:05.027Z,13.90
2017-08-27T11:25:32.484Z,15.33
2017-08-27T11:27:59.926Z,17.80
2017-08-27T11:30:27.379Z,17.83
2017-08-27T11:32:54.836Z,14.37
2017-08-27T11:35:22.287Z,14.70
2017-08-27T11:37:49.724Z,14.80
2017-08-27T11:40:17.184Z,14.10
2017-08-27T11:42:44.632Z,13.87
2017-08-27T11:45:12.094Z,15.80
2017-08-27T11:47:39.540Z,14.53
2017-08-27T11:50:07.000Z,14.03
2017-08-27T11:52:34.439Z,13.83
2017-08-27T11:55:01.892Z,13.10
2017-08-27T11:57:29.349Z,14.63
2017-08-27T11:59:56.803Z,14.77
2017-08-27T12:02:24.258Z,16.30
2017-08-27T12:04:51.719Z,14.40
2017-08-27T12:07:19.274Z,14.27
2017-08-27T12:09:46.746Z,15.00
2017-08-27T12:12:14.187Z,15.40
2017-08-27T12:14:41.630Z,15.23
2017-08-27T12:17:09.083Z,17.10
2017-08-27T12:19:36.542Z,15.23
2017-08-27T12:22:03.983Z,15.17
2017-08-27T12:24:31.440Z,15.73
2017-08-27T12:26:58.891Z,15.47
2017-08-27T12:29:26.339Z,14.10
2017-08-27T12:31:53.791Z,15.27
2017-08-27T12:34:21.255Z,14.33
2017-08-27T12:36:48.704Z,14.83
2017-08-27T12:39:16.147Z,13.83
2017-08-27T12:41:43.602Z,15.90
2017-08-27T12:44:11.048Z,16.63
2017-08-27T12:46:38.499Z,14.73
2017-08-27T12:49:05.956Z,15.80
2017-08-27T12:51:33.413Z,14.87
2017-08-27T12:54:00.855Z,15.67
2017-08-27T12:56:28.302Z,14.80
2017-08-27T12:58:55.760Z,13.03
2017-08-27T13:01:23.204Z,14.23
2017-08-27T13:03:50.647Z,15.27
2017-08-27T13:06:18.091Z,13.03
2017-08-27T13:08:45.543Z,14.03
2017-08-27T13:11:13.091Z,12.73
2017-08-27T13:13:40.594Z,14.30
2017-08-27T13:16:08.051Z,13.40
2017-08-27T13:18:35.505Z,12.87
2017-08-27T13:21:02.973Z,13.67
2017-08-27T13:23:30.413Z,14.10
2017-08-27T13:25:57.863Z,14.73
2017-08-27T13:28:25.319Z,14.27
2017-08-27T13:30:52.768Z,14.53
2017-08-27T13:33:20.223Z,14.60
2017-08-27T13:35:47.668Z,15.40
2017-08-27T13:38:15.131Z,14.93
2017-08-27T13:40:42.575Z,14.23
2017-08-27T13:43:10.027Z,14.77
2017-08-27T13:45:37.470Z,13.20
2017-08-27T13:48:04.922Z,13.40
2017-08-27T13:50:32.365Z,15.93
2017-08-27T13:52:59.832Z,13.97
2017-08-27T13:55:27.280Z,14.33
2017-08-27T13:57:54.730Z,14.13
2017-08-27T14:00:22.179Z,14.77
2017-08-27T14:02:49.635Z,13.87
2017-08-27T14:05:17.082Z,14.17
2017-08-27T14:07:44.531Z,13.53
2017-08-27T14:10:11.986Z,14.50
2017-08-27T14:12:39.445Z,13.80
2017-08-27T14:15:06.898Z,14.47
2017-08-27T14:17:34.457Z,14.27
2017-08-27T14:20:01.980Z,15.13
2017-08-27T14:22:29.433Z,14.13
2017-08-27T14:24:56.890Z,14.60
2017-08-27T14:27:24.335Z,16.07
2017-08-27T14:29:51.809Z,14.47
2017-08-27T14:32:19.253Z,14.27
2017-08-27T14:34:46.686Z,15.53
2017-08-27T14:37:14.160Z,18.40
2017-08-27T14:39:41.599Z,16.03
2017-08-27T14:42:09.060Z,14.33
2017-08-27T14:44:36.503Z,14.20
2017-08-27T14:47:03.956Z,16.47
2017-08-27T14:49:31.394Z,14.43
2017-08-27T14:51:58.863Z,15.23
2017-08-27T14:54:26.303Z,14.93
2017-08-27T14:56:53.752Z,16.03
2017-08-27T14:59:21.203Z,14.77
2017-08-27T15:01:48.687Z,16.20
2017-08-27T15:04:16.132Z,15.13
2017-08-27T15:06:43.582Z,14.60
2017-08-27T15:09:11.034Z,16.23
2017-08-27T15:11:38.474Z,15.83
2017-08-27T15:14:05.929Z,16.37
2017-08-27T15:16:33.374Z,17.40
2017-08-27T15:19:00.829Z,16.07
2017-08-27T15:21:28.274Z,14.37
2017-08-27T15:23:55.733Z,14.70
2017-08-27T15:26:23.172Z,15.10
2017-08-27T15:28:50.661Z,15.60
2017-08-27T15:31:18.102Z,16.17
2017-08-27T15:33:45.561Z,15.13
2017-08-27T15:36:13.004Z,15.23
2017-08-27T15:38:40.476Z,14.93
2017-08-27T15:41:08.695Z,15.97
2017-08-27T15:43:36.166Z,15.23
2017-08-27T15:46:03.631Z,15.03
2017-08-27T15:48:31.078Z,15.33
2017-08-27T15:50:58.535Z,15.97
2017-08-27T15:53:25.985Z,14.03
2017-08-27T15:55:53.660Z,15.47
2017-08-27T15:58:21.105Z,15.30
2017-08-27T16:00:48.570Z,14.87
2017-08-27T16:03:16.010Z,14.70
2017-08-27T16:05:43.473Z,14.53
2017-08-27T16:08:10.923Z,14.00
2017-08-27T16:10:38.392Z,15.87
2017-08-27T16:13:05.927Z,15.77
2017-08-27T16:15:33.370Z,16.13
2017-08-27T16:18:00.821Z,14.80
2017-08-27T16:20:28.262Z,14.40
2017-08-27T16:22:55.710Z,16.10
2017-08-27T16:25:23.208Z,14.73
2017-08-27T16:27:50.643Z,14.43
2017-08-27T16:30:18.122Z,13.60
2017-08-27T16:32:45.579Z,14.03
2017-08-27T16:35:13.039Z,14.40
2017-08-27T16:37:40.496Z,15.73
2017-08-27T16:40:07.990Z,14.77
2017-08-27T16:42:35.443Z,14.40
2017-08-27T16:45:02.900Z,14.97
2017-08-27T16:47:38.145Z,14.83
2017-08-27T16:50:05.582Z,14.07
2017-08-27T16:52:33.043Z,14.80
2017-08-27T16:55:00.504Z,14.87
2017-08-27T16:57:27.967Z,15.53
2017-08-27T16:59:55.418Z,13.60
2017-08-27T17:02:22.880Z,14.10
2017-08-27T17:04:50.323Z,15.47
2017-08-27T17:07:17.778Z,15.80
2017-08-27T17:09:45.243Z,14.50
2017-08-27T17:12:12.699Z,14.50
2017-08-27T17:14:40.155Z,13.87
2017-08-27T17:17:07.654Z,14.60
2017-08-27T17:19:35.088Z,14.63
2017-08-27T17:22:02.538Z,14.93
2017-08-27T17:24:29.984Z,15.20
2017-08-27T17:26:57.470Z,13.53
2017-08-27T17:29:24.919Z,14.80
2017-08-27T17:31:53.155Z,14.07
2017-08-27T17:34:20.598Z,14.60
2017-08-27T17:36:48.047Z,14.60
2017-08-27T17:39:15.505Z,13.97
2017-08-27T17:41:42.960Z,14.60
2017-08-27T17:44:10.414Z,15.13
2017-08-27T17:46:37.886Z,13.77
2017-08-27T17:49:05.339Z,15.63
2017-08-27T17:51:32.786Z,14.13
2017-08-27T17:54:00.239Z,17.67
2017-08-27T17:56:27.696Z,15.03
2017-08-27T17:58:55.150Z,14.90
2017-08-27T18:01:22.608Z,15.30
2017-08-27T18:03:50.082Z,14.70
2017-08-27T18:06:17.529Z,15.57
2017-08-27T18:08:44.978Z,15.17
2017-08-27T18:11:12.420Z,15.03
2017-08-27T18:13:39.886Z,16.60
2017-08-27T18:16:07.324Z,16.47
2017-08-27T18:18:34.801Z,24.27
2017-08-27T18:21:02.254Z,15.60
2017-08-27T18:23:29.700Z,16.47
2017-08-27T18:25:57.169Z,17.70
2017-08-27T18:28:24.602Z,15.83
2017-08-27T18:30:52.055Z,15.67
2017-08-27T18:33:19.508Z,16.30
2017-08-27T18:35:46.950Z,15.57
2017-08-27T18:38:14.402Z,15.87
2017-08-27T18:40:41.848Z,15.33
2017-08-27T18:43:09.291Z,14.50
2017-08-27T18:45:36.823Z,14.10
2017-08-27T18:48:04.266Z,14.50
2017-08-27T18:50:31.706Z,13.23
2017-08-27T18:52:59.147Z,13.73
2017-08-27T18:55:26.594Z,14.50
2017-08-27T18:57:54.039Z,14.67
2017-08-27T19:00:21.495Z,14.70
2017-08-27T19:02:54.687Z,14.53
2017-08-27T19:05:22.155Z,13.77
2017-08-27T19:07:49.598Z,12.30
2017-08-27T19:10:17.055Z,15.83
2017-08-27T19:12:44.511Z,11.93
2017-08-27T19:15:11.956Z,11.47
2017-08-27T19:17:39.411Z,11.80
2017-08-27T19:20:06.858Z,11.87
2017-08-27T19:22:34.307Z,11.60
2017-08-27T19:25:01.769Z,11.10
2017-08-27T19:27:29.237Z,10.23
2017-08-27T19:29:56.678Z,11.17
2017-08-27T19:32:24.227Z,10.30
2017-08-27T19:34:51.654Z,9.83
2017-08-27T19:37:19.880Z,9.47
2017-08-27T19:39:47.327Z,10.53
2017-08-27T19:42:14.779Z,10.30
2017-08-27T19:44:42.324Z,11.03
2017-08-27T19:47:09.763Z,10.57
2017-08-27T19:49:37.202Z,10.90
2017-08-27T19:52:04.651Z,10.00
2017-08-27T19:54:32.091Z,10.30
2017-08-27T19:56:59.554Z,10.53
2017-08-27T19:59:26.999Z,10.33
2017-08-27T20:01:54.460Z,11.23
2017-08-27T20:04:21.909Z,11.87
2017-08-27T20:06:49.366Z,11.73
2017-08-27T20:09:16.820Z,12.43
2017-08-27T20:11:44.275Z,10.27
2017-08-27T20:14:11.724Z,10.50
2017-08-27T20:16:39.187Z,11.27
2017-08-27T20:19:06.640Z,11.67
2017-08-27T20:21:34.102Z,10.60
2017-08-27T20:24:01.562Z,10.97
2017-08-27T20:26:29.007Z,11.77
2017-08-27T20:28:56.475Z,11.20
2017-08-27T20:31:23.902Z,10.60
2017-08-27T20:33:51.352Z,10.73
2017-08-27T20:36:19.559Z,12.37
2017-08-27T20:38:47.014Z,11.20
2017-08-27T20:41:14.458Z,10.83
2017-08-27T20:43:41.906Z,11.10
2017-08-27T20:46:09.350Z,10.53
2017-08-27T20:48:36.802Z,10.53
2017-08-27T20:51:04.334Z,10.20
2017-08-27T20:53:31.786Z,10.37
2017-08-27T20:55:59.222Z,9.47
2017-08-27T20:58:26.663Z,9.83
2017-08-27T21:00:54.139Z,9.70
2017-08-27T21:03:21.592Z,9.77
2017-08-27T21:05:49.028Z,9.37
2017-08-27T21:08:16.478Z,10.17
2017-08-27T21:10:43.918Z,9.83
2017-08-27T21:13:11.364Z,9.50
2017-08-27T21:15:38.823Z,10.90
2017-08-27T21:18:06.964Z,10.80
2017-08-27T21:20:34.408Z,9.70
2017-08-27T21:23:01.854Z,11.77
2017-08-27T21:25:29.294Z,11.20
2017-08-27T21:27:56.735Z,10.60
2017-08-27T21:30:24.187Z,9.50
2017-08-27T21:32:51.630Z,10.60
2017-08-27T21:35:19.091Z,10.90
2017-08-27T21:37:46.537Z,11.83
2017-08-27T21:40:13.987Z,11.07
2017-08-27T21:42:41.423Z,9.90
2017-08-27T21:45:08.868Z,10.17
2017-08-27T21:47:36.298Z,8.67
2017-08-27T21:50:03.740Z,9.10
2017-08-27T21:52:31.182Z,8.53
2017-08-27T21:54:58.632Z,9.50
2017-08-27T21:57:26.090Z,8.83
2017-08-27T21:59:53.545Z,8.97
2017-08-27T22:02:20.990Z,9.33
2017-08-27T22:04:48.422Z,9.07
2017-08-27T22:07:15.863Z,9.13
2017-08-27T22:09:43.302Z,9.73
2017-08-27T22:12:10.750Z,9.80
2017-08-27T22:14:38.202Z,10.60
2017-08-27T22:17:05.655Z,9.73
2017-08-27T22:19:33.095Z,10.60
2017-08-27T22:22:00.547Z,9.70
2017-08-27T22:24:27.983Z,10.00
2017-08-27T22:26:56.194Z,10.37
2017-08-27T22:29:23.639Z,10.37
2017-08-27T22:31:51.094Z,9.33
2017-08-27T22:34:18.528Z,9.97
2017-08-27T22:36:45.970Z,10.00
2017-08-27T22:39:14.198Z,10.57
2017-08-27T22:41:41.655Z,8.60
2017-08-27T22:44:09.103Z,9.60
2017-08-27T22:46:36.546Z,9.27
2017-08-27T22:49:04.004Z,10.07
2017-08-27T22:51:31.439Z,9.97
2017-08-27T22:53:58.882Z,10.10
2017-08-27T22:56:26.316Z,9.53
2017-08-27T22:58:53.763Z,8.93
2017-08-27T23:01:21.203Z,9.93
2017-08-27T23:03:48.650Z,9.50
2017-08-27T23:06:16.095Z,9.47
2017-08-27T23:08:43.546Z,9.57
2017-08-27T23:11:10.980Z,9.73
2017-08-27T23:13:39.182Z,9.33
2017-08-27T23:16:06.623Z,9.37
2017-08-27T23:18:34.066Z,9.70
2017-08-27T23:21:01.503Z,8.33
2017-08-27T23:23:29.003Z,9.20
2017-08-27T23:25:56.411Z,9.23
2017-08-27T23:28:23.846Z,8.37
2017-08-27T23:30:51.295Z,8.77
2017-08-27T23:33:18.738Z,8.97
2017-08-27T23:35:46.184Z,8.70
2017-08-27T23:38:13.654Z,8.50
2017-08-27T23:40:41.097Z,8.90
2017-08-27T23:43:08.535Z,9.10
2017-08-27T23:45:35.983Z,8.37
2017-08-27T23:48:03.426Z,8.93
2017-08-27T23:50:30.870Z,9.03
2017-08-27T23:52:58.302Z,9.10
2017-08-27T23:55:25.744Z,8.50
2017-08-27T23:57:53.193Z,9.00
